Time;durP1;ratioP1;P1;durP2;ratioP2;P2;SDS_P1;SDS_P2;PMS_P1;PMS_P2;Temp;Humidity;BMP_temperature;BMP_pressure;BME280_temperature;BME280_humidity;BME280_pressure;Samples;Min_cycle;Max_cycle;Signal;HPM_P1;HPM_P2
2021/09/02 00:01:53;;;;;;;26.85;15.73;;;16.80;97.00;;;;;;4275196;27;20360;-71
2021/09/02 00:03:56;;;;;;;24.00;14.70;;;16.60;97.40;;;;;;4275128;27;20091;-70
2021/09/02 00:05:59;;;;;;;29.92;17.98;;;16.60;97.50;;;;;;4274811;27;20084;-70
2021/09/02 00:08:03;;;;;;;31.00;16.75;;;16.60;97.60;;;;;;4275270;27;20050;-70
2021/09/02 00:10:06;;;;;;;26.48;16.10;;;16.60;97.70;;;;;;4275276;27;20054;-70
2021/09/02 00:12:09;;;;;;;25.45;15.98;;;16.60;97.70;;;;;;4275118;27;20100;-70
2021/09/02 00:14:12;;;;;;;29.20;16.67;;;16.60;97.70;;;;;;4274914;27;20051;-69
2021/09/02 00:16:17;;;;;;;25.25;15.55;;;16.50;97.80;;;;;;4274956;27;20051;-70
2021/09/02 00:18:20;;;;;;;26.40;15.75;;;16.50;97.70;;;;;;4256781;27;20288;-70
2021/09/02 00:20:23;;;;;;;30.63;16.20;;;16.60;97.60;;;;;;4274885;27;20050;-70
2021/09/02 00:22:27;;;;;;;24.15;16.95;;;16.50;97.70;;;;;;4274999;27;20051;-70
2021/09/02 00:24:30;;;;;;;27.35;17.23;;;16.50;97.70;;;;;;4274973;27;20347;-70
2021/09/02 00:26:33;;;;;;;29.02;18.02;;;16.60;97.50;;;;;;4274963;27;20054;-70
2021/09/02 00:28:36;;;;;;;25.45;16.23;;;16.60;97.40;;;;;;4274743;27;20062;-72
2021/09/02 00:30:39;;;;;;;32.92;19.05;;;16.60;97.40;;;;;;4274653;27;20440;-70
2021/09/02 00:32:44;;;;;;;33.28;18.08;;;16.70;97.40;;;;;;4274705;27;20054;-70
2021/09/02 00:34:47;;;;;;;25.83;18.50;;;16.50;97.80;;;;;;4274937;27;20092;-70
2021/09/02 00:36:49;;;;;;;26.90;17.20;;;16.50;97.80;;;;;;4274414;27;20058;-70
2021/09/02 00:38:52;;;;;;;28.65;17.55;;;16.30;98.00;;;;;;4274437;27;20051;-70
2021/09/02 00:40:57;;;;;;;27.70;16.60;;;16.40;98.00;;;;;;4274414;27;20046;-70
2021/09/02 00:42:59;;;;;;;27.73;17.83;;;16.60;97.70;;;;;;4273969;27;20281;-70
2021/09/02 00:45:03;;;;;;;24.00;16.80;;;16.50;97.60;;;;;;4255526;27;20055;-70
2021/09/02 00:47:08;;;;;;;34.10;17.60;;;16.50;97.80;;;;;;4274030;27;20108;-70
2021/09/02 00:49:13;;;;;;;34.90;20.23;;;16.50;97.70;;;;;;4274488;27;20099;-70
2021/09/02 00:51:18;;;;;;;28.70;19.17;;;16.40;97.80;;;;;;4274162;27;20054;-71
2021/09/02 00:53:20;;;;;;;;;;;16.50;97.90;;;;;;4274697;27;20051;-69
2021/09/02 00:55:23;;;;;;;30.17;18.15;;;16.40;97.80;;;;;;4238667;27;19916;-70
2021/09/02 00:57:30;;;;;;;31.30;18.13;;;16.50;97.70;;;;;;4274104;27;20051;-70
2021/09/02 00:59:33;;;;;;;25.33;15.55;;;16.50;97.50;;;;;;4274361;27;20096;-70
2021/09/02 01:01:36;;;;;;;24.20;14.50;;;16.60;97.50;;;;;;4274225;27;20096;-70
2021/09/02 01:03:39;;;;;;;24.92;15.55;;;16.70;97.30;;;;;;4273923;27;20058;-70
2021/09/02 01:05:43;;;;;;;26.98;15.00;;;16.80;96.90;;;;;;4273635;27;20055;-70
2021/09/02 01:07:47;;;;;;;21.25;14.38;;;16.80;96.80;;;;;;4255844;27;20063;-70
2021/09/02 01:09:52;;;;;;;24.70;15.52;;;16.80;96.80;;;;;;4274115;27;20304;-69
2021/09/02 01:11:55;;;;;;;;;;;16.70;97.10;;;;;;4274469;27;20111;-69
2021/09/02 01:13:59;;;;;;;26.67;14.82;;;16.70;97.10;;;;;;4274250;27;19975;-70
2021/09/02 01:16:02;;;;;;;29.00;15.13;;;16.70;97.00;;;;;;4273876;27;20054;-70
2021/09/02 01:18:05;;;;;;;24.15;13.60;;;16.80;96.90;;;;;;4274056;27;20054;-70
2021/09/02 01:20:10;;;;;;;24.35;13.95;;;16.90;96.70;;;;;;4273860;27;20054;-70
2021/09/02 01:22:15;;;;;;;26.98;14.57;;;16.90;96.50;;;;;;4273915;27;20051;-69
2021/09/02 01:24:19;;;;;;;28.63;14.73;;;16.80;96.70;;;;;;4273732;27;20238;-69
2021/09/02 01:26:24;;;;;;;22.83;14.65;;;16.70;96.90;;;;;;4273509;27;20058;-69
2021/09/02 01:28:27;;;;;;;24.00;15.68;;;16.70;97.20;;;;;;4255509;27;20051;-70
2021/09/02 01:30:31;;;;;;;23.10;14.90;;;16.70;96.90;;;;;;4273546;27;20050;-70
2021/09/02 01:32:36;;;;;;;25.75;14.77;;;16.70;96.90;;;;;;4255249;27;20051;-71
2021/09/02 01:34:39;;;;;;;28.88;16.35;;;16.70;96.90;;;;;;4273499;27;20091;-70
2021/09/02 01:36:42;;;;;;;25.50;14.95;;;16.50;97.40;;;;;;4273236;27;20095;-71
2021/09/02 01:38:45;;;;;;;23.95;15.35;;;16.40;97.60;;;;;;4273237;27;20050;-70
2021/09/02 01:40:49;;;;;;;27.23;15.85;;;16.50;97.50;;;;;;4272942;27;20063;-70
2021/09/02 01:42:53;;;;;;;29.52;16.40;;;16.20;98.10;;;;;;4273064;27;20088;-71
2021/09/02 01:44:56;;;;;;;24.15;15.90;;;16.20;98.20;;;;;;4273284;27;20285;-70
2021/09/02 01:46:59;;;;;;;27.65;16.33;;;16.20;98.20;;;;;;4273241;27;20058;-69
2021/09/02 01:49:02;;;;;;;31.63;16.83;;;16.20;98.30;;;;;;4254887;27;20051;-70
2021/09/02 01:51:05;;;;;;;29.85;16.52;;;16.20;98.20;;;;;;4273184;27;20054;-70
2021/09/02 01:53:10;;;;;;;27.88;16.60;;;16.20;98.00;;;;;;4272959;27;20071;-70
2021/09/02 01:55:14;;;;;;;31.25;16.38;;;16.20;98.20;;;;;;4273104;27;20103;-71
2021/09/02 01:57:18;;;;;;;28.58;16.27;;;16.20;98.30;;;;;;4273082;27;20059;-70
2021/09/02 01:59:21;;;;;;;28.85;16.15;;;16.20;98.30;;;;;;4273247;27;20425;-70
2021/09/02 02:01:24;;;;;;;30.35;16.73;;;16.00;98.70;;;;;;4272840;27;20096;-70
2021/09/02 02:03:27;;;;;;;26.70;16.27;;;16.20;98.30;;;;;;4272834;27;20054;-70
2021/09/02 02:05:30;;;;;;;26.50;16.40;;;16.20;98.20;;;;;;4272498;27;20057;-71
2021/09/02 02:07:34;;;;;;;27.15;15.95;;;16.20;98.30;;;;;;4272221;27;20130;-70
2021/09/02 02:09:37;;;;;;;26.98;16.85;;;16.20;98.60;;;;;;4272933;27;20107;-70
2021/09/02 02:11:40;;;;;;;30.83;16.67;;;16.10;98.60;;;;;;4272862;27;20064;-70
2021/09/02 02:13:44;;;;;;;28.98;15.95;;;15.90;98.80;;;;;;4272664;27;20046;-70
2021/09/02 02:15:47;;;;;;;35.78;17.45;;;16.10;98.70;;;;;;4272682;27;20220;-70
2021/09/02 02:17:51;;;;;;;28.67;17.73;;;15.90;99.00;;;;;;4272577;27;20054;-70
2021/09/02 02:19:54;;;;;;;29.75;17.05;;;15.90;99.30;;;;;;4272802;27;20224;-70
2021/09/02 02:21:57;;;;;;;29.38;17.77;;;15.90;99.00;;;;;;4272547;27;20273;-70
2021/09/02 02:24:00;;;;;;;32.72;17.80;;;16.00;98.90;;;;;;4271211;27;20076;-70
2021/09/02 02:26:03;;;;;;;28.33;16.10;;;16.00;98.80;;;;;;4272670;27;20046;-71
2021/09/02 02:28:06;;;;;;;29.52;17.40;;;16.00;98.80;;;;;;4272738;27;20054;-70
2021/09/02 02:30:14;;;;;;;31.60;17.58;;;15.90;99.00;;;;;;4254515;27;20281;-70
2021/09/02 02:32:17;;;;;;;28.05;17.10;;;15.90;99.00;;;;;;4272675;27;20051;-70
2021/09/02 02:34:20;;;;;;;32.03;18.42;;;15.80;99.30;;;;;;4272844;27;20323;-70
2021/09/02 02:36:23;;;;;;;31.27;17.95;;;15.80;99.30;;;;;;4272410;27;20391;-70
2021/09/02 02:38:25;;;;;;;31.10;17.67;;;15.80;99.40;;;;;;4272542;27;20309;-70
2021/09/02 02:40:28;;;;;;;30.83;17.92;;;15.90;99.20;;;;;;4272605;27;20084;-70
2021/09/02 02:42:31;;;;;;;31.50;17.48;;;15.90;99.20;;;;;;4272194;27;20379;-70
2021/09/02 02:44:36;;;;;;;29.88;19.08;;;15.90;99.10;;;;;;4272371;27;20046;-70
2021/09/02 02:46:40;;;;;;;30.20;17.83;;;15.80;99.40;;;;;;4272472;27;20296;-70
2021/09/02 02:48:43;;;;;;;31.90;18.13;;;15.90;99.10;;;;;;4272282;27;20051;-70
2021/09/02 02:50:46;;;;;;;28.75;18.05;;;15.90;99.00;;;;;;4272262;27;20058;-70
2021/09/02 02:52:49;;;;;;;31.35;18.00;;;15.90;99.00;;;;;;4272411;27;20092;-70
2021/09/02 02:54:52;;;;;;;32.47;17.88;;;15.90;99.00;;;;;;4272349;27;20070;-70
2021/09/02 02:56:55;;;;;;;30.63;17.30;;;16.00;98.80;;;;;;4272296;27;20120;-70
2021/09/02 02:58:58;;;;;;;29.70;18.15;;;15.90;99.00;;;;;;4254129;27;20100;-70
2021/09/02 03:01:01;;;;;;;34.03;18.73;;;15.80;99.20;;;;;;4272590;27;20066;-70
2021/09/02 03:03:05;;;;;;;35.72;18.30;;;15.70;99.50;;;;;;4272540;27;20046;-70
2021/09/02 03:05:09;;;;;;;32.90;18.70;;;15.70;99.60;;;;;;4272336;27;20099;-68
2021/09/02 03:07:12;;;;;;;29.95;18.65;;;15.70;99.50;;;;;;4272344;27;20096;-70
2021/09/02 03:09:15;;;;;;;30.23;18.77;;;15.80;99.30;;;;;;4272273;27;20058;-70
2021/09/02 03:11:18;;;;;;;37.88;18.85;;;15.70;99.40;;;;;;4272327;27;20047;-70
2021/09/02 03:13:21;;;;;;;34.00;18.55;;;15.80;99.20;;;;;;4254158;27;20051;-70
2021/09/02 03:15:24;;;;;;;35.63;19.13;;;15.70;99.40;;;;;;4272134;27;20104;-70
2021/09/02 03:17:27;;;;;;;35.78;18.77;;;15.80;99.40;;;;;;4273500;27;20109;-70
2021/09/02 03:19:32;;;;;;;31.58;18.73;;;15.70;99.50;;;;;;4277917;27;20054;-70
2021/09/02 03:21:35;;;;;;;36.83;19.13;;;15.70;99.50;;;;;;4277936;27;20047;-70
2021/09/02 03:23:38;;;;;;;32.80;19.27;;;15.60;99.60;;;;;;4259779;27;20104;-70
2021/09/02 03:25:41;;;;;;;34.55;19.52;;;15.60;99.40;;;;;;4259751;27;20111;-69
2021/09/02 03:27:44;;;;;;;32.25;18.65;;;15.70;99.40;;;;;;4277677;27;20054;-69
2021/09/02 03:29:47;;;;;;;31.77;18.90;;;15.60;99.70;;;;;;4277717;27;20055;-69
2021/09/02 03:31:50;;;;;;;32.13;19.15;;;15.60;99.50;;;;;;4277865;27;20100;-69
2021/09/02 03:33:53;;;;;;;36.15;19.77;;;15.60;99.80;;;;;;4277632;27;20051;-70
2021/09/02 03:35:57;;;;;;;32.33;19.50;;;15.60;99.60;;;;;;4277851;27;20122;-69
2021/09/02 03:38:00;;;;;;;36.97;20.67;;;15.60;99.80;;;;;;4277838;27;20399;-69
2021/09/02 03:40:05;;;;;;;33.45;19.45;;;15.50;99.70;;;;;;4277609;27;20099;-69
2021/09/02 03:42:07;;;;;;;33.53;19.17;;;15.60;99.80;;;;;;4259466;27;20050;-69
2021/09/02 03:44:11;;;;;;;34.55;18.80;;;15.60;99.40;;;;;;4277697;27;20046;-70
2021/09/02 03:46:14;;;;;;;38.35;20.30;;;15.70;99.20;;;;;;4277521;27;20157;-69
2021/09/02 03:48:17;;;;;;;32.95;18.75;;;15.70;99.40;;;;;;4277604;27;20335;-69
2021/09/02 03:50:20;;;;;;;36.00;19.80;;;15.60;99.60;;;;;;4277523;27;20169;-69
2021/09/02 03:52:24;;;;;;;37.58;21.30;;;15.40;99.90;;;;;;4277662;27;20050;-71
2021/09/02 03:54:27;;;;;;;36.58;20.23;;;15.40;99.90;;;;;;4277497;27;20055;-71
2021/09/02 03:56:30;;;;;;;36.80;21.27;;;15.20;99.90;;;;;;4277424;27;20139;-69
2021/09/02 03:58:33;;;;;;;39.38;20.65;;;15.30;99.90;;;;;;4277368;27;20426;-69
2021/09/02 04:00:36;;;;;;;32.15;20.10;;;15.30;99.90;;;;;;4277578;27;20102;-69
2021/09/02 04:02:40;;;;;;;37.58;21.27;;;15.20;99.90;;;;;;4277744;27;20366;-69
2021/09/02 04:04:43;;;;;;;42.72;22.02;;;15.30;99.90;;;;;;4277395;27;20047;-69
2021/09/02 04:06:46;;;;;;;36.60;21.23;;;15.20;99.90;;;;;;4277550;27;20046;-70
2021/09/02 04:08:51;;;;;;;34.05;20.23;;;15.30;99.90;;;;;;4277357;27;20338;-69
2021/09/02 04:10:53;;;;;;;;;;;15.20;99.90;;;;;;4278147;27;20115;-69
2021/09/02 04:12:56;;;;;;;41.90;22.67;;;15.30;99.90;;;;;;4277622;27;19922;-71
2021/09/02 04:14:59;;;;;;;36.88;21.27;;;15.20;99.90;;;;;;4259266;27;20055;-69
2021/09/02 04:17:04;;;;;;;44.05;22.05;;;15.10;99.90;;;;;;4277355;27;20050;-69
2021/09/02 04:19:07;;;;;;;41.15;21.17;;;15.20;99.90;;;;;;4277420;27;20054;-70
2021/09/02 04:21:10;;;;;;;36.78;21.90;;;15.20;99.90;;;;;;4277607;27;20058;-69
2021/09/02 04:23:13;;;;;;;41.17;22.92;;;15.30;99.90;;;;;;4277177;27;20050;-70
2021/09/02 04:25:17;;;;;;;42.95;23.38;;;15.20;99.90;;;;;;4277622;27;20054;-69
2021/09/02 04:27:20;;;;;;;36.05;21.75;;;15.30;99.90;;;;;;4277355;27;20092;-69
2021/09/02 04:29:24;;;;;;;42.72;22.20;;;15.50;99.70;;;;;;4275091;27;20146;-69
2021/09/02 04:31:27;;;;;;;37.30;22.48;;;15.50;99.50;;;;;;4274615;27;20050;-69
2021/09/02 04:33:30;;;;;;;46.30;22.83;;;15.60;99.40;;;;;;4274364;27;20103;-69
2021/09/02 04:35:33;;;;;;;40.08;21.70;;;15.50;99.50;;;;;;4274477;27;20400;-69
2021/09/02 04:37:37;;;;;;;37.08;22.45;;;15.50;99.40;;;;;;4274545;27;20115;-69
2021/09/02 04:39:40;;;;;;;40.90;22.70;;;15.40;99.60;;;;;;4274749;27;20268;-69
2021/09/02 04:41:45;;;;;;;41.75;22.52;;;15.30;99.80;;;;;;4274201;27;20265;-69
2021/09/02 04:43:48;;;;;;;38.97;22.40;;;15.20;99.90;;;;;;4274757;27;20274;-69
2021/09/02 04:45:50;;;;;;;46.17;24.17;;;15.20;99.90;;;;;;4274472;27;20076;-69
2021/09/02 04:47:53;;;;;;;41.05;22.98;;;15.20;99.90;;;;;;4274287;27;20051;-69
2021/09/02 04:49:56;;;;;;;42.08;23.67;;;15.10;99.90;;;;;;4274258;27;20047;-69
2021/09/02 04:51:59;;;;;;;41.75;23.83;;;15.20;99.90;;;;;;4256367;27;20377;-69
2021/09/02 04:54:02;;;;;;;43.70;24.17;;;15.20;99.90;;;;;;4274237;27;20046;-69
2021/09/02 04:56:05;;;;;;;41.38;23.73;;;15.10;99.90;;;;;;4274408;27;20272;-69
2021/09/02 04:58:11;;;;;;;41.75;24.52;;;15.20;99.90;;;;;;4255840;27;20055;-69
2021/09/02 05:00:15;;;;;;;41.67;24.23;;;15.10;99.90;;;;;;4274091;27;20269;-68
2021/09/02 05:02:18;;;;;;;52.05;25.90;;;15.00;99.90;;;;;;4274114;27;20051;-70
2021/09/02 05:04:21;;;;;;;45.65;25.02;;;14.90;99.90;;;;;;4274171;27;20050;-69
2021/09/02 05:06:24;;;;;;;48.50;24.98;;;14.90;99.90;;;;;;4274370;27;20047;-69
2021/09/02 05:08:27;;;;;;;44.83;25.65;;;14.80;99.90;;;;;;4273796;27;20237;-70
2021/09/02 05:10:31;;;;;;;49.95;25.80;;;15.00;99.90;;;;;;4273894;27;20067;-69
2021/09/02 05:12:33;;;;;;;43.60;25.40;;;15.00;99.90;;;;;;4273888;27;20297;-71
2021/09/02 05:14:38;;;;;;;51.10;25.90;;;15.00;99.90;;;;;;4273705;27;20050;-70
2021/09/02 05:16:41;;;;;;;50.30;26.50;;;15.10;99.90;;;;;;4273835;27;20055;-71
2021/09/02 05:18:44;;;;;;;49.88;26.17;;;15.20;99.90;;;;;;4273739;27;20338;-70
2021/09/02 05:20:47;;;;;;;50.10;26.77;;;15.10;99.90;;;;;;4273662;27;20058;-71
2021/09/02 05:22:50;;;;;;;42.72;25.58;;;15.00;99.90;;;;;;4273939;27;20092;-70
2021/09/02 05:24:53;;;;;;;50.85;25.13;;;15.10;99.90;;;;;;4273736;27;20092;-69
2021/09/02 05:26:56;;;;;;;48.95;27.10;;;15.20;99.90;;;;;;4273575;27;20047;-70
2021/09/02 05:28:59;;;;;;;46.08;26.30;;;15.10;99.90;;;;;;4273264;27;20351;-69
2021/09/02 05:31:03;;;;;;;47.85;25.25;;;15.20;99.90;;;;;;4274049;27;20339;-70
2021/09/02 05:33:06;;;;;;;55.63;26.77;;;15.10;99.90;;;;;;4274480;27;20043;-70
2021/09/02 05:35:10;;;;;;;52.72;26.35;;;15.00;99.90;;;;;;4273918;27;20087;-69
2021/09/02 05:37:13;;;;;;;55.60;28.33;;;15.00;99.90;;;;;;4273571;27;20070;-70
2021/09/02 05:39:16;;;;;;;43.28;26.70;;;15.10;99.90;;;;;;4273774;27;20339;-70
2021/09/02 05:41:19;;;;;;;54.67;27.95;;;14.90;99.90;;;;;;4273287;27;20211;-70
2021/09/02 05:43:22;;;;;;;56.20;27.83;;;14.70;99.90;;;;;;4273470;27;20050;-70
2021/09/02 05:45:25;;;;;;;57.50;28.73;;;14.70;99.90;;;;;;4273496;27;20103;-70
2021/09/02 05:47:29;;;;;;;53.28;26.58;;;14.70;99.90;;;;;;4273516;27;20106;-70
2021/09/02 05:49:32;;;;;;;58.67;27.52;;;14.80;99.90;;;;;;4273393;27;20054;-70
2021/09/02 05:51:35;;;;;;;58.47;28.55;;;14.80;99.90;;;;;;4273191;27;20103;-68
2021/09/02 05:53:38;;;;;;;54.90;28.30;;;14.60;99.90;;;;;;4273460;27;20371;-70
2021/09/02 05:55:41;;;;;;;58.13;28.58;;;14.60;99.90;;;;;;4273071;27;20103;-70
2021/09/02 05:57:44;;;;;;;54.92;28.50;;;14.80;99.90;;;;;;4273192;27;20098;-70
2021/09/02 05:59:47;;;;;;;56.00;28.73;;;14.80;99.90;;;;;;4273185;27;20050;-70
2021/09/02 06:01:50;;;;;;;51.58;28.48;;;14.90;99.90;;;;;;4273140;27;20092;-71
2021/09/02 06:03:55;;;;;;;58.70;27.55;;;14.80;99.90;;;;;;4273345;27;20050;-70
2021/09/02 06:05:58;;;;;;;58.25;28.70;;;14.90;99.90;;;;;;4272743;27;20107;-71
2021/09/02 06:08:01;;;;;;;58.17;29.20;;;14.90;99.90;;;;;;4273120;27;20051;-71
2021/09/02 06:10:05;;;;;;;52.38;28.55;;;14.90;99.90;;;;;;4273027;27;20054;-70
2021/09/02 06:12:08;;;;;;;61.03;30.48;;;14.90;99.90;;;;;;4272935;27;20099;-70
2021/09/02 06:14:11;;;;;;;59.90;28.20;;;15.00;99.90;;;;;;4272913;27;20046;-70
2021/09/02 06:16:14;;;;;;;56.63;31.08;;;14.90;99.90;;;;;;4272835;27;20092;-70
2021/09/02 06:18:17;;;;;;;59.38;30.80;;;15.00;99.90;;;;;;4272849;27;20092;-70
2021/09/02 06:20:21;;;;;;;56.53;28.70;;;15.00;99.90;;;;;;4273003;27;20054;-70
2021/09/02 06:22:24;;;;;;;59.80;29.70;;;15.10;99.90;;;;;;4272906;27;20122;-71
2021/09/02 06:24:27;;;;;;;59.97;30.42;;;15.20;99.90;;;;;;4272850;27;20157;-68
2021/09/02 06:26:30;;;;;;;56.53;30.40;;;15.00;99.90;;;;;;4272790;27;20224;-71
2021/09/02 06:28:33;;;;;;;56.33;30.25;;;15.00;99.90;;;;;;4272531;27;20051;-71
2021/09/02 06:30:36;;;;;;;61.25;29.63;;;15.10;99.90;;;;;;4272674;27;20066;-71
2021/09/02 06:32:39;;;;;;;64.93;30.70;;;15.20;99.90;;;;;;4272604;27;20046;-71
2021/09/02 06:34:42;;;;;;;59.75;29.58;;;15.40;99.90;;;;;;4272406;27;20053;-71
2021/09/02 06:36:46;;;;;;;60.08;31.65;;;15.50;99.90;;;;;;4272554;27;20047;-71
2021/09/02 06:38:49;;;;;;;52.83;28.90;;;15.40;99.90;;;;;;4272248;27;20240;-70
2021/09/02 06:40:52;;;;;;;58.13;29.20;;;15.40;99.90;;;;;;4272770;27;20034;-71
2021/09/02 06:42:55;;;;;;;58.10;28.80;;;15.30;99.90;;;;;;4254466;27;20092;-71
2021/09/02 06:44:58;;;;;;;54.50;29.60;;;15.40;99.90;;;;;;4272393;27;20236;-68
2021/09/02 06:47:02;;;;;;;62.35;31.35;;;15.40;99.90;;;;;;4272426;27;20046;-71
2021/09/02 06:49:05;;;;;;;54.30;30.30;;;15.30;99.90;;;;;;4272567;27;20084;-70
2021/09/02 06:51:08;;;;;;;53.85;30.65;;;15.30;99.90;;;;;;4272529;27;20284;-71
2021/09/02 06:53:12;;;;;;;52.25;28.02;;;15.20;99.90;;;;;;4271774;27;20114;-71
2021/09/02 06:55:15;;;;;;;57.72;28.90;;;15.20;99.90;;;;;;4272542;27;20039;-70
2021/09/02 06:57:18;;;;;;;57.50;31.75;;;15.20;99.90;;;;;;4272297;27;20091;-70
2021/09/02 06:59:21;;;;;;;60.22;29.08;;;15.10;99.90;;;;;;4272067;27;20091;-69
2021/09/02 07:01:24;;;;;;;57.63;31.20;;;15.30;99.90;;;;;;4272317;27;20057;-69
2021/09/02 07:03:27;;;;;;;60.30;29.65;;;15.40;99.90;;;;;;4272108;27;20395;-69
2021/09/02 07:05:31;;;;;;;58.45;30.23;;;15.30;99.90;;;;;;4271930;27;20059;-69
2021/09/02 07:07:34;;;;;;;60.30;30.83;;;15.40;99.90;;;;;;4254081;27;20327;-69
2021/09/02 07:09:38;;;;;;;58.80;30.48;;;15.40;99.90;;;;;;4272186;27;20189;-70
2021/09/02 07:11:41;;;;;;;60.50;29.75;;;15.50;99.90;;;;;;4272371;27;20379;-68
2021/09/02 07:13:44;;;;;;;59.17;30.30;;;15.70;99.90;;;;;;4272000;27;20054;-69
2021/09/02 07:15:47;;;;;;;53.15;27.83;;;15.70;99.90;;;;;;4271873;27;20047;-68
2021/09/02 07:17:50;;;;;;;61.05;29.98;;;15.80;99.90;;;;;;4271903;27;20289;-68
2021/09/02 07:19:53;;;;;;;59.83;31.15;;;15.60;99.90;;;;;;4271985;27;20046;-69
2021/09/02 07:21:56;;;;;;;51.38;28.65;;;15.70;99.90;;;;;;4253700;27;20343;-69
2021/09/02 07:23:59;;;;;;;64.07;29.25;;;15.70;99.90;;;;;;4271974;27;20051;-68
2021/09/02 07:26:03;;;;;;;54.53;28.80;;;15.80;99.90;;;;;;4272242;27;20107;-66
2021/09/02 07:28:06;;;;;;;69.38;29.48;;;15.80;99.90;;;;;;4271799;27;20047;-66
2021/09/02 07:30:10;;;;;;;53.80;28.08;;;15.70;99.90;;;;;;4271829;27;20095;-69
2021/09/02 07:32:13;;;;;;;52.40;29.03;;;15.90;99.90;;;;;;4271996;27;20055;-69
2021/09/02 07:34:16;;;;;;;52.50;28.42;;;16.00;99.60;;;;;;4271954;27;20395;-66
2021/09/02 07:36:19;;;;;;;54.65;29.80;;;15.90;99.70;;;;;;4271693;27;20051;-68
2021/09/02 07:38:42;;;;;;;56.72;29.25;;;16.20;99.40;;;;;;4271494;27;20112;-66
2021/09/02 07:40:45;;;;;;;53.60;28.73;;;16.40;99.10;;;;;;4271618;27;20043;-69
2021/09/02 07:43:03;;;;;;;48.55;27.65;;;16.30;99.00;;;;;;4271941;27;20050;-69
2021/09/02 07:45:07;;;;;;;58.30;28.73;;;16.50;98.90;;;;;;4272164;27;20054;-67
2021/09/02 07:47:10;;;;;;;56.83;30.90;;;16.60;98.70;;;;;;4272113;27;20099;-67
2021/09/02 07:49:13;;;;;;;58.92;29.35;;;16.80;98.60;;;;;;4271713;27;20233;-68
2021/09/02 07:51:18;;;;;;;55.95;27.02;;;16.90;98.10;;;;;;4271810;27;20082;-69
2021/09/02 07:53:21;;;;;;;58.22;27.73;;;17.00;98.10;;;;;;4272034;27;20051;-66
2021/09/02 07:55:24;;;;;;;50.33;27.25;;;17.10;97.90;;;;;;4271563;27;20050;-69
2021/09/02 07:57:27;;;;;;;50.35;26.30;;;17.20;97.40;;;;;;4271768;27;20050;-71
2021/09/02 07:59:32;;;;;;;51.58;26.85;;;17.30;97.40;;;;;;4253730;27;20070;-69
2021/09/02 08:01:35;;;;;;;49.75;26.38;;;17.20;97.10;;;;;;4271823;27;20099;-69
2021/09/02 08:03:39;;;;;;;47.05;27.20;;;17.40;97.20;;;;;;4271685;27;20273;-69
2021/09/02 08:05:42;;;;;;;49.95;27.90;;;17.30;97.20;;;;;;4273943;27;20326;-65
2021/09/02 08:07:47;;;;;;;46.55;26.05;;;17.50;97.20;;;;;;4274827;27;20091;-68
2021/09/02 08:09:51;;;;;;;52.38;29.33;;;17.40;97.00;;;;;;4274835;27;20283;-68
2021/09/02 08:11:54;;;;;;;48.85;26.52;;;17.40;96.90;;;;;;4275015;27;20050;-69
2021/09/02 08:13:57;;;;;;;43.22;24.00;;;17.50;96.80;;;;;;4274901;27;20107;-69
2021/09/02 08:16:02;;;;;;;54.97;26.25;;;17.60;96.80;;;;;;4274992;27;20046;-71
2021/09/02 08:18:05;;;;;;;48.20;25.75;;;17.70;96.70;;;;;;4274845;27;20051;-70
2021/09/02 08:20:10;;;;;;;49.15;25.20;;;17.90;96.60;;;;;;4274800;27;20050;-69
2021/09/02 08:22:12;;;;;;;47.03;25.03;;;17.90;96.20;;;;;;4275181;27;20047;-69
2021/09/02 08:24:16;;;;;;;47.70;24.77;;;17.80;96.50;;;;;;4274880;27;20231;-69
2021/09/02 08:26:19;;;;;;;47.53;24.80;;;17.80;96.50;;;;;;4256538;27;20047;-68
2021/09/02 08:28:22;;;;;;;45.83;25.88;;;17.80;96.40;;;;;;4274773;27;20076;-67
2021/09/02 08:30:26;;;;;;;41.63;25.52;;;17.80;96.50;;;;;;4274518;27;20058;-68
2021/09/02 08:32:31;;;;;;;46.22;25.13;;;17.80;96.50;;;;;;4274677;27;20050;-69
2021/09/02 08:34:34;;;;;;;45.25;24.40;;;17.90;96.30;;;;;;4274567;27;20054;-68
2021/09/02 08:36:37;;;;;;;43.30;24.88;;;17.90;96.50;;;;;;4274482;27;20280;-68
2021/09/02 08:38:41;;;;;;;52.50;25.13;;;18.10;96.20;;;;;;4274433;27;20046;-67
2021/09/02 08:40:44;;;;;;;52.30;25.67;;;18.50;95.80;;;;;;4274611;27;20054;-68
2021/09/02 08:42:48;;;;;;;48.42;24.65;;;18.50;95.60;;;;;;4274442;27;20057;-68
2021/09/02 08:44:51;;;;;;;50.60;24.67;;;18.50;95.40;;;;;;4274663;27;20055;-66
2021/09/02 08:46:55;;;;;;;45.67;25.38;;;18.60;95.50;;;;;;4274744;27;20087;-65
2021/09/02 08:49:01;;;;;;;42.13;24.83;;;18.50;95.40;;;;;;4274682;27;20072;-69
2021/09/02 08:51:04;;;;;;;44.97;24.23;;;18.70;95.10;;;;;;4274239;27;20054;-70
2021/09/02 08:53:08;;;;;;;46.55;25.50;;;18.70;95.20;;;;;;4256216;27;20051;-69
2021/09/02 08:55:11;;;;;;;42.92;24.45;;;18.60;95.20;;;;;;4274252;27;20047;-73
2021/09/02 08:57:15;;;;;;;44.63;23.48;;;18.80;95.30;;;;;;4274510;27;20275;-69
2021/09/02 08:59:18;;;;;;;42.58;24.10;;;19.00;95.00;;;;;;4274390;27;20343;-66
2021/09/02 09:01:21;;;;;;;49.25;22.55;;;19.00;94.80;;;;;;4274200;27;20050;-68
2021/09/02 09:03:25;;;;;;;39.17;22.05;;;19.10;94.70;;;;;;4266339;27;20088;-72
2021/09/02 09:05:32;;;;;;;45.60;24.73;;;19.30;94.50;;;;;;4273874;27;20110;-71
2021/09/02 09:07:37;;;;;;;43.50;22.50;;;19.30;94.30;;;;;;4274256;27;20284;-69
2021/09/02 09:09:51;;;;;;;41.95;24.98;;;19.30;94.40;;;;;;4274111;27;20047;-68
2021/09/02 09:12:00;;;;;;;36.50;21.83;;;19.30;94.10;;;;;;4274024;27;20106;-71
2021/09/02 09:14:08;;;;;;;38.13;21.33;;;19.40;94.00;;;;;;4274104;27;20051;-68
2021/09/02 09:16:11;;;;;;;37.88;22.75;;;19.50;94.20;;;;;;4273695;27;20370;-70
2021/09/02 09:18:17;;;;;;;36.13;22.23;;;19.50;93.90;;;;;;4274095;27;20051;-67
2021/09/02 09:20:21;;;;;;;36.85;21.75;;;19.50;94.20;;;;;;4274135;27;20050;-66
2021/09/02 09:22:29;;;;;;;40.13;21.80;;;19.60;94.10;;;;;;4273325;27;20047;-71
2021/09/02 09:24:47;;;;;;;39.33;22.27;;;19.70;93.60;;;;;;4269135;27;20338;-73
2021/09/02 09:26:50;;;;;;;48.00;22.80;;;19.80;93.50;;;;;;4273088;27;20335;-70
2021/09/02 09:28:56;;;;;;;38.55;21.70;;;19.80;93.40;;;;;;4273380;27;20130;-72
2021/09/02 09:31:00;;;;;;;36.85;21.88;;;19.90;93.40;;;;;;4273639;27;20064;-71
2021/09/02 09:33:05;;;;;;;36.67;22.23;;;20.10;93.30;;;;;;4273673;27;20135;-69
2021/09/02 09:35:12;;;;;;;34.65;19.88;;;20.20;92.90;;;;;;4273733;27;20245;-71
2021/09/02 09:37:21;;;;;;;35.60;19.27;;;20.40;93.00;;;;;;4273671;27;20047;-67
2021/09/02 09:39:25;;;;;;;42.42;19.95;;;20.50;92.60;;;;;;4255551;27;20047;-69
2021/09/02 09:41:32;;;;;;;46.10;21.85;;;20.60;92.30;;;;;;4273463;27;20327;-73
2021/09/02 09:43:35;;;;;;;39.25;20.17;;;20.60;92.50;;;;;;4256638;27;20058;-70
2021/09/02 09:45:43;;;;;;;40.03;19.60;;;20.70;92.20;;;;;;4274050;27;20046;-73
2021/09/02 09:47:46;;;;;;;32.60;20.88;;;20.80;92.00;;;;;;4255766;27;20043;-71
2021/09/02 09:49:52;;;;;;;39.92;20.13;;;20.70;91.80;;;;;;4273242;27;20087;-73
2021/09/02 09:51:55;;;;;;;35.28;20.58;;;20.90;91.70;;;;;;4273813;27;20059;-69
2021/09/02 09:53:58;;;;;;;33.72;20.15;;;20.60;91.60;;;;;;4255158;27;20051;-72
2021/09/02 09:56:03;;;;;;;33.25;19.73;;;20.50;91.90;;;;;;4273468;27;20047;-71
2021/09/02 09:58:06;;;;;;;32.03;18.52;;;20.70;92.00;;;;;;4273351;27;20047;-72
2021/09/02 10:00:22;;;;;;;31.88;19.08;;;20.90;91.50;;;;;;4273113;27;20081;-71
2021/09/02 10:02:25;;;;;;;32.03;19.20;;;20.90;91.40;;;;;;4254918;27;20119;-73
2021/09/02 10:04:30;;;;;;;32.15;19.35;;;21.00;91.60;;;;;;4273024;27;20466;-71
2021/09/02 10:06:34;;;;;;;40.45;20.38;;;21.00;91.50;;;;;;4273785;27;20047;-71
2021/09/02 10:08:38;;;;;;;31.58;19.48;;;20.90;91.10;;;;;;4264877;27;20360;-70
2021/09/02 10:10:42;;;;;;;29.05;18.80;;;20.90;91.20;;;;;;4238211;27;20048;-69
2021/09/02 10:12:47;;;;;;;34.55;19.10;;;21.10;91.30;;;;;;4256412;27;20047;-69
2021/09/02 10:14:51;;;;;;;33.65;18.48;;;21.00;91.10;;;;;;4255846;27;20051;-67
2021/09/02 10:16:56;;;;;;;33.92;18.10;;;21.10;91.10;;;;;;4264065;27;20043;-71
2021/09/02 10:19:01;;;;;;;29.95;18.60;;;21.10;91.30;;;;;;4252513;27;20436;-69
2021/09/02 10:21:07;;;;;;;32.88;18.08;;;21.10;91.00;;;;;;4271462;27;20035;-70
2021/09/02 10:23:11;;;;;;;31.40;18.08;;;21.30;91.10;;;;;;4271484;27;20047;-69
2021/09/02 10:25:38;;;;;;;31.50;16.90;;;21.40;90.40;;;;;;4272939;27;20042;-71
2021/09/02 10:27:42;;;;;;;27.85;17.48;;;21.60;90.60;;;;;;4274254;27;20099;-74
2021/09/02 10:29:54;;;;;;;27.58;16.80;;;21.70;90.30;;;;;;4276029;27;20083;-75